HRYR/KGL METAR and TAF weather

Enter ICAO airport designator
Station Type Date Time Source
HRYR METAR 2019/02/23 14:00 UTC NOAA

HRYR 231400Z 15007KT 9999 SCT025 24/15 Q1017 NOSIG


Station Type Date Time Source
HRYR Decoded METAR 2019/02/23 14:00 UTC NOAA

Kigali, Rwanda (HRYR) 01-58S 030-07E 1497M
Feb 23, 2019 - 09:00 AM EST / 2019.02.23 1400 UTC
Wind: from the SSE (150 degrees) at 8 MPH (7 KT):0
Visibility: greater than 7 mile(s):0
Sky conditions: partly cloudy
Temperature: 75 F (24 C)
Dew Point: 59 F (15 C)
Relative Humidity: 57%
Pressure (altimeter): 30.03 in. Hg (1017 hPa)
ob: HRYR 231400Z 15007KT 9999 SCT025 24/15 Q1017 NOSIG
cycle: 14

Station Type Date Time Source
HRYR TAF 2019/02/23 18:54 UTC NOAA

TAF HRYR 231700Z 2318/2424 17008KT 9999 SCT025 BKN100 FM 232100 09004KT FEW026 BKN100
BECMG 2403/2406 00000KT 5000 BR SCT026 BKN100 FM 240800 18006KT 9999 SCT025
TEMPO 2412/2416 09012KT TS/-TSRA FEW023CB BKN025 FM 242000 30004KT FEW026 SCT100


Example: see airport list